Time;durP1;ratioP1;P1;durP2;ratioP2;P2;SDS_P1;SDS_P2;PMS_P1;PMS_P2;Temp;Humidity;BMP_temperature;BMP_pressure;BME280_temperature;BME280_humidity;BME280_pressure;Samples;Min_cycle;Max_cycle;Signal;HPM_P1;HPM_P2
2023/09/11 00:01:41;;;;;;;5.70;2.90;;;;;;;12.59;100.00;101427.33;107090;1249;59508;-71
2023/09/11 00:04:10;;;;;;;5.60;3.30;;;;;;;12.58;100.00;101427.21;107032;1248;62935;-70
2023/09/11 00:06:39;;;;;;;4.60;2.90;;;;;;;12.68;100.00;101423.20;107144;1252;58977;-71
2023/09/11 00:09:08;;;;;;;4.10;3.00;;;;;;;12.55;100.00;101422.02;107117;1256;58712;-70
2023/09/11 00:11:37;;;;;;;5.80;3.00;;;;;;;12.41;100.00;101420.00;107165;1256;62476;-71
2023/09/11 00:14:06;;;;;;;5.50;3.20;;;;;;;12.33;100.00;101418.30;107142;1245;61129;-70
2023/09/11 00:16:35;;;;;;;6.10;3.30;;;;;;;12.29;100.00;101419.79;107208;1253;60296;-70
2023/09/11 00:19:04;;;;;;;8.80;4.00;;;;;;;12.23;100.00;101419.16;107113;1255;71177;-69
2023/09/11 00:21:33;;;;;;;5.70;3.40;;;;;;;12.25;100.00;101420.24;107169;1246;59108;-70
2023/09/11 00:24:03;;;;;;;5.80;3.20;;;;;;;12.27;100.00;101421.84;107171;1256;58999;-71
2023/09/11 00:26:32;;;;;;;8.10;3.10;;;;;;;12.24;100.00;101420.16;107142;1248;63656;-70
2023/09/11 00:29:02;;;;;;;5.30;3.10;;;;;;;12.25;100.00;101417.84;107173;1253;72256;-70
2023/09/11 00:31:30;;;;;;;6.00;3.40;;;;;;;12.26;100.00;101416.20;107153;1244;71787;-70
2023/09/11 00:34:00;;;;;;;5.50;3.30;;;;;;;12.19;100.00;101414.71;107124;1248;73890;-71
2023/09/11 00:36:29;;;;;;;5.00;3.00;;;;;;;12.10;100.00;101418.83;107133;1245;63303;-69
2023/09/11 00:38:58;;;;;;;6.70;3.70;;;;;;;12.10;100.00;101420.20;107114;1248;60852;-71
2023/09/11 00:41:27;;;;;;;5.50;3.60;;;;;;;12.00;100.00;101421.73;107189;1248;63909;-70
2023/09/11 00:43:56;;;;;;;7.50;4.00;;;;;;;11.91;100.00;101418.15;107218;1253;61162;-71
2023/09/11 00:46:25;;;;;;;7.60;3.50;;;;;;;11.83;100.00;101416.90;107140;1255;59361;-71
2023/09/11 00:48:56;;;;;;;8.00;4.50;;;;;;;11.86;100.00;101419.36;107141;1257;73528;-69
2023/09/11 00:51:25;;;;;;;11.10;4.20;;;;;;;11.78;100.00;101417.98;107172;1246;61659;-70
2023/09/11 00:53:54;;;;;;;9.30;4.20;;;;;;;11.72;100.00;101414.89;107203;1245;58978;-70
2023/09/11 00:56:24;;;;;;;8.70;4.60;;;;;;;11.66;100.00;101413.47;107152;1255;73409;-71
2023/09/11 00:58:53;;;;;;;8.40;4.40;;;;;;;11.68;100.00;101413.04;107142;1246;72473;-70
2023/09/11 01:01:23;;;;;;;6.30;4.20;;;;;;;11.64;100.00;101413.11;107176;1246;60105;-71
2023/09/11 01:03:52;;;;;;;9.20;5.40;;;;;;;11.60;100.00;101410.41;107067;1248;73743;-72
2023/09/11 01:06:22;;;;;;;8.00;4.40;;;;;;;11.69;100.00;101405.45;107098;1248;59083;-70
2023/09/11 01:22:41;;;;;;;7.20;4.10;;;;;;;12.14;100.00;101408.05;103796;1281;616258;-79
2023/09/11 01:26:17;;;;;;;6.90;3.80;;;;;;;12.01;100.00;101410.20;104350;1258;2491649;-79
2023/09/11 01:29:26;;;;;;;7.50;3.80;;;;;;;11.88;100.00;101407.38;106234;1257;58140;-79
2023/09/11 01:31:55;;;;;;;6.30;3.40;;;;;;;11.76;100.00;101403.25;106054;1263;69418;-78
2023/09/11 01:34:24;;;;;;;7.80;3.80;;;;;;;11.64;100.00;101395.19;106267;1257;60691;-79
2023/09/11 01:36:53;;;;;;;6.80;3.70;;;;;;;11.56;100.00;101404.09;106321;1257;59803;-77
2023/09/11 01:39:22;;;;;;;7.30;3.90;;;;;;;11.46;100.00;101410.45;106268;1256;72474;-77
2023/09/11 01:41:58;;;;;;;6.80;3.10;;;;;;;11.39;100.00;101410.06;106240;1257;59114;-80
2023/09/11 01:44:46;;;;;;;6.30;2.90;;;;;;;11.32;100.00;101414.48;106313;1257;61092;-78
2023/09/11 01:47:23;;;;;;;7.70;3.40;;;;;;;11.24;100.00;101410.12;106347;1258;62648;-78
2023/09/11 01:49:55;;;;;;;5.20;3.20;;;;;;;11.17;100.00;101407.28;106467;1256;61885;-77
2023/09/11 01:52:25;;;;;;;5.90;3.60;;;;;;;11.09;100.00;101405.84;106349;1266;59204;-78
2023/09/11 01:54:57;;;;;;;7.20;3.00;;;;;;;11.01;100.00;101406.20;106367;1254;73697;-77
2023/09/11 01:57:27;;;;;;;5.80;3.30;;;;;;;10.97;100.00;101405.95;106704;1262;63173;-76
2023/09/11 01:59:56;;;;;;;4.70;3.00;;;;;;;11.11;100.00;101408.38;106826;1253;59056;-78
2023/09/11 02:02:25;;;;;;;8.90;3.20;;;;;;;11.25;100.00;101405.36;106892;1260;62575;-78
2023/09/11 02:04:54;;;;;;;6.60;3.10;;;;;;;11.09;100.00;101406.73;106837;1255;61169;-75
2023/09/11 02:07:23;;;;;;;4.70;2.70;;;;;;;10.89;100.00;101406.27;106846;1248;70440;-77
2023/09/11 02:09:52;;;;;;;5.40;3.00;;;;;;;10.97;100.00;101407.49;106728;1251;64385;-77
2023/09/11 02:12:22;;;;;;;5.90;3.40;;;;;;;11.02;100.00;101404.20;106964;1251;59005;-76
2023/09/11 02:14:51;;;;;;;4.70;3.10;;;;;;;11.09;100.00;101403.37;106828;1250;59159;-78
2023/09/11 02:17:20;;;;;;;6.50;2.90;;;;;;;11.09;100.00;101400.65;106813;1260;61763;-81
2023/09/11 02:19:49;;;;;;;5.10;2.80;;;;;;;10.98;100.00;101401.83;106753;1250;61247;-79
2023/09/11 02:22:17;;;;;;;5.60;3.20;;;;;;;10.89;100.00;101404.53;106801;1247;70329;-79
2023/09/11 02:24:46;;;;;;;6.10;3.00;;;;;;;10.81;100.00;101400.98;106800;1251;73964;-78
2023/09/11 02:27:15;;;;;;;3.90;2.90;;;;;;;10.79;100.00;101403.18;106716;1249;59078;-80
2023/09/11 02:29:44;;;;;;;4.80;3.00;;;;;;;10.75;100.00;101399.45;106759;1258;59006;-80
2023/09/11 02:32:13;;;;;;;5.70;3.30;;;;;;;10.74;100.00;101395.86;106623;1251;61613;-82
2023/09/11 02:34:42;;;;;;;4.60;2.80;;;;;;;11.16;100.00;101393.92;106621;1258;62195;-81
2023/09/11 02:37:11;;;;;;;4.50;3.00;;;;;;;11.21;100.00;101390.61;106927;1250;59598;-81
2023/09/11 02:39:40;;;;;;;4.10;2.90;;;;;;;11.06;100.00;101387.90;106973;1261;63223;-80
2023/09/11 02:42:09;;;;;;;5.50;3.30;;;;;;;10.94;100.00;101388.13;106717;1251;58890;-82
2023/09/11 02:44:38;;;;;;;6.10;3.00;;;;;;;10.86;100.00;101383.74;106661;1253;59014;-81
2023/09/11 02:47:07;;;;;;;6.30;3.00;;;;;;;10.76;100.00;101378.46;106659;1261;72894;-81
2023/09/11 02:49:36;;;;;;;7.30;3.30;;;;;;;10.93;100.00;101377.09;106689;1248;61328;-79
2023/09/11 02:52:06;;;;;;;6.20;3.30;;;;;;;10.93;100.00;101375.18;106642;1251;61926;-81
2023/09/11 02:54:35;;;;;;;5.90;3.10;;;;;;;10.86;100.00;101375.38;106608;1251;64122;-79
2023/09/11 02:57:05;;;;;;;4.80;3.20;;;;;;;10.81;100.00;101374.85;106751;1251;57584;-80
2023/09/11 02:59:34;;;;;;;5.90;3.20;;;;;;;11.16;100.00;101369.11;106772;1248;61067;-81
2023/09/11 03:02:05;;;;;;;8.50;3.80;;;;;;;11.08;100.00;101373.70;106651;1251;73498;-79
2023/09/11 03:04:34;;;;;;;6.30;3.20;;;;;;;11.17;100.00;101372.40;106782;1250;71018;-80
2023/09/11 03:07:03;;;;;;;7.20;3.30;;;;;;;11.20;100.00;101372.52;106820;1254;60432;-77
2023/09/11 03:09:32;;;;;;;7.20;3.30;;;;;;;11.06;100.00;101370.48;106879;1261;73966;-79
2023/09/11 03:12:01;;;;;;;7.80;3.50;;;;;;;10.92;100.00;101372.94;106631;1251;58949;-77
2023/09/11 03:14:30;;;;;;;7.00;3.90;;;;;;;10.77;100.00;101372.99;106836;1251;60812;-77
2023/09/11 03:16:59;;;;;;;7.80;3.50;;;;;;;10.70;100.00;101378.67;106714;1249;72984;-77
2023/09/11 03:19:29;;;;;;;9.00;3.80;;;;;;;10.73;100.00;101372.56;106679;1248;71775;-77
2023/09/11 03:21:58;;;;;;;6.80;4.40;;;;;;;10.69;100.00;101378.60;106686;1251;59559;-77
2023/09/11 03:24:27;;;;;;;7.80;3.40;;;;;;;10.57;100.00;101380.89;106700;1252;62830;-77
2023/09/11 03:26:57;;;;;;;7.70;4.20;;;;;;;10.50;100.00;101379.26;106689;1261;62185;-77
2023/09/11 03:29:26;;;;;;;7.40;3.50;;;;;;;10.44;100.00;101377.16;106683;1248;60701;-77
2023/09/11 03:31:55;;;;;;;6.40;3.50;;;;;;;10.42;100.00;101377.63;106709;1260;62038;-78
2023/09/11 03:34:24;;;;;;;6.60;3.60;;;;;;;10.43;100.00;101380.35;106660;1253;61681;-82
2023/09/11 03:36:54;;;;;;;5.10;3.60;;;;;;;10.50;100.00;101383.94;106793;1253;70217;-82
2023/09/11 03:39:23;;;;;;;7.80;3.90;;;;;;;10.45;100.00;101383.94;106702;1251;74063;-82
2023/09/11 03:41:53;;;;;;;8.20;3.90;;;;;;;10.51;100.00;101382.16;106664;1248;58156;-80
2023/09/11 03:44:22;;;;;;;7.00;3.80;;;;;;;10.91;100.00;101383.65;106970;1251;59140;-78
2023/09/11 03:46:51;;;;;;;10.90;7.00;;;;;;;10.90;100.00;101382.15;106732;1249;61758;-80
2023/09/11 03:49:20;;;;;;;17.00;9.00;;;;;;;10.77;100.00;101383.33;106981;1260;72769;-82
2023/09/11 03:51:50;;;;;;;10.10;6.00;;;;;;;10.77;100.00;101387.15;107166;1249;70738;-81
2023/09/11 03:54:20;;;;;;;13.40;6.30;;;;;;;10.82;100.00;101385.24;107308;1248;73705;-83
2023/09/11 03:56:49;;;;;;;6.70;4.00;;;;;;;10.82;100.00;101382.80;106784;1249;58858;-81
2023/09/11 03:59:18;;;;;;;9.30;5.00;;;;;;;10.80;100.00;101379.23;106717;1251;57508;-77
2023/09/11 04:01:50;;;;;;;7.90;4.60;;;;;;;10.73;100.00;101381.33;106716;1249;70938;-80
2023/09/11 04:04:18;;;;;;;7.40;4.60;;;;;;;10.85;100.00;101380.23;106772;1249;71965;-79
2023/09/11 04:06:47;;;;;;;9.60;4.70;;;;;;;10.91;100.00;101380.33;106724;1261;69731;-80
2023/09/11 04:09:16;;;;;;;12.10;4.90;;;;;;;11.00;100.00;101378.73;106675;1252;72938;-81
2023/09/11 04:11:46;;;;;;;9.30;4.60;;;;;;;11.01;100.00;101379.52;106711;1252;62451;-81
2023/09/11 04:14:14;;;;;;;10.00;5.30;;;;;;;11.21;100.00;101378.11;106781;1248;61445;-81
2023/09/11 04:16:43;;;;;;;9.10;4.80;;;;;;;11.28;100.00;101378.16;106722;1253;72974;-82
2023/09/11 04:19:12;;;;;;;14.50;5.80;;;;;;;11.29;100.00;101375.96;106751;1254;70979;-76
2023/09/11 04:21:41;;;;;;;10.50;5.90;;;;;;;11.37;100.00;101372.35;106861;1249;69676;-71
2023/09/11 04:24:12;;;;;;;9.10;5.70;;;;;;;11.44;100.00;101370.98;106689;1254;75203;-71
2023/09/11 04:26:44;;;;;;;8.60;5.50;;;;;;;11.53;100.00;101370.91;106790;1253;59058;-71
2023/09/11 04:29:17;;;;;;;8.10;5.30;;;;;;;11.70;100.00;101369.77;106851;1248;59044;-72
2023/09/11 04:31:47;;;;;;;13.50;5.30;;;;;;;12.44;100.00;101367.55;106666;1251;62219;-72
2023/09/11 04:34:17;;;;;;;13.30;5.90;;;;;;;12.46;100.00;101367.93;106714;1257;61656;-70
2023/09/11 04:36:46;;;;;;;8.60;5.30;;;;;;;12.34;100.00;101370.58;106733;1252;60814;-70
2023/09/11 04:39:15;;;;;;;11.30;5.20;;;;;;;12.33;100.00;101365.55;106613;1261;62561;-72
2023/09/11 04:41:44;;;;;;;11.60;5.70;;;;;;;13.13;100.00;101366.36;106690;1251;62480;-70
2023/09/11 04:44:13;;;;;;;10.20;5.50;;;;;;;13.06;100.00;101366.84;106814;1259;61470;-71
2023/09/11 04:46:45;;;;;;;11.80;5.10;;;;;;;12.92;100.00;101365.77;106592;1251;62678;-70
2023/09/11 04:49:14;;;;;;;7.80;5.30;;;;;;;12.88;100.00;101366.95;106561;1261;60847;-73
2023/09/11 04:51:44;;;;;;;14.80;6.00;;;;;;;12.85;100.00;101368.52;106661;1251;70717;-69
2023/09/11 04:54:13;;;;;;;11.90;5.40;;;;;;;12.92;100.00;101371.89;106499;1260;74385;-74
2023/09/11 04:56:42;;;;;;;11.90;6.10;;;;;;;13.09;100.00;101370.15;106928;1253;59014;-76
2023/09/11 04:59:11;;;;;;;21.20;5.50;;;;;;;13.12;100.00;101365.89;106712;1254;57517;-74
2023/09/11 05:01:40;;;;;;;12.80;5.60;;;;;;;13.20;100.00;101362.33;106599;1261;70076;-73
2023/09/11 05:04:09;;;;;;;13.50;7.40;;;;;;;13.39;100.00;101356.56;106840;1251;60825;-74
2023/09/11 05:06:38;;;;;;;16.80;6.20;;;;;;;13.86;100.00;101353.73;106937;1259;60014;-76
2023/09/11 05:09:07;;;;;;;13.30;5.60;;;;;;;14.30;100.00;101348.79;106648;1250;73252;-76
2023/09/11 05:11:41;;;;;;;10.40;5.70;;;;;;;14.68;100.00;101350.69;106640;1253;58241;-74
2023/09/11 05:14:10;;;;;;;11.70;7.50;;;;;;;14.94;100.00;101350.45;106617;1248;59451;-77
2023/09/11 05:16:39;;;;;;;13.30;5.80;;;;;;;15.02;100.00;101346.02;106719;1253;61301;-79
2023/09/11 05:19:08;;;;;;;9.70;5.30;;;;;;;15.07;100.00;101344.59;106765;1259;73320;-80
2023/09/11 05:21:37;;;;;;;11.10;5.20;;;;;;;15.18;100.00;101341.45;106803;1251;59941;-80
2023/09/11 05:24:06;;;;;;;9.50;5.00;;;;;;;15.34;100.00;101347.88;106795;1251;63376;-81
2023/09/11 05:26:35;;;;;;;9.20;5.00;;;;;;;15.36;100.00;101345.74;106784;1252;59093;-80
2023/09/11 05:29:04;;;;;;;12.90;5.30;;;;;;;15.45;100.00;101348.02;106781;1250;59090;-83
2023/09/11 05:31:33;;;;;;;8.80;5.30;;;;;;;15.71;100.00;101352.73;106935;1251;62226;-83
2023/09/11 05:34:02;;;;;;;14.60;5.60;;;;;;;15.82;100.00;101347.89;106899;1252;72780;-69
2023/09/11 05:36:31;;;;;;;11.60;5.70;;;;;;;15.97;100.00;101345.92;106719;1251;70180;-68
2023/09/11 05:38:59;;;;;;;14.30;5.70;;;;;;;16.04;100.00;101344.79;106616;1251;74215;-70
2023/09/11 05:41:29;;;;;;;12.40;4.50;;;;;;;16.08;100.00;101344.95;106644;1248;62118;-71
2023/09/11 05:43:58;;;;;;;11.00;4.90;;;;;;;16.15;100.00;101345.75;106643;1251;60765;-72
2023/09/11 05:46:27;;;;;;;11.80;4.90;;;;;;;16.22;100.00;101345.69;106579;1249;73668;-69
2023/09/11 05:48:56;;;;;;;13.10;5.20;;;;;;;16.32;100.00;101344.16;106669;1248;72447;-69
2023/09/11 05:51:25;;;;;;;13.10;5.60;;;;;;;16.37;100.00;101343.38;106639;1260;59296;-69
2023/09/11 05:53:54;;;;;;;12.10;5.60;;;;;;;16.45;100.00;101345.30;106659;1251;62580;-71
2023/09/11 05:56:23;;;;;;;12.00;4.90;;;;;;;16.55;100.00;101347.41;106640;1251;58986;-69
2023/09/11 05:58:52;;;;;;;7.90;4.70;;;;;;;16.78;100.00;101347.02;106709;1249;58988;-68
2023/09/11 06:01:21;;;;;;;17.40;5.60;;;;;;;16.83;100.00;101353.09;106618;1249;73019;-68
2023/09/11 06:03:50;;;;;;;14.60;6.00;;;;;;;16.99;100.00;101354.82;107416;1249;72037;-67
2023/09/11 06:06:20;;;;;;;13.60;4.80;;;;;;;17.11;100.00;101357.83;106558;1261;70621;-68
2023/09/11 06:08:49;;;;;;;10.80;4.90;;;;;;;17.20;100.00;101358.59;106381;1254;73527;-68
2023/09/11 06:11:18;;;;;;;14.60;5.30;;;;;;;17.35;100.00;101355.06;106916;1250;61778;-73
2023/09/11 06:13:48;;;;;;;9.50;5.20;;;;;;;17.45;99.73;101358.78;106671;1251;59040;-71
2023/09/11 06:16:17;;;;;;;15.10;4.80;;;;;;;17.55;99.64;101359.44;106610;1251;73480;-68
2023/09/11 06:18:47;;;;;;;7.10;4.50;;;;;;;17.68;99.36;101357.20;107100;1249;72379;-67
2023/09/11 06:21:16;;;;;;;10.10;5.10;;;;;;;17.85;98.42;101361.64;106846;1248;59949;-67
2023/09/11 06:23:46;;;;;;;14.10;5.50;;;;;;;17.97;97.11;101362.25;106686;1262;73828;-81
2023/09/11 06:26:15;;;;;;;10.30;4.50;;;;;;;18.11;96.05;101356.06;107024;1250;59101;-83
2023/09/11 06:28:44;;;;;;;6.70;4.30;;;;;;;18.10;93.89;101362.30;107251;1252;59474;-81
2023/09/11 06:31:14;;;;;;;11.30;4.70;;;;;;;18.18;94.09;101357.29;107051;1251;62115;-81
2023/09/11 06:33:44;;;;;;;9.00;3.80;;;;;;;18.32;92.95;101356.55;107606;1248;70495;-83
2023/09/11 06:36:14;;;;;;;18.40;5.00;;;;;;;18.43;91.91;101354.94;107884;1251;70090;-84
2023/09/11 06:38:43;;;;;;;11.40;4.30;;;;;;;18.60;91.80;101356.66;107009;1252;63654;-85
2023/09/11 06:41:13;;;;;;;11.30;4.10;;;;;;;18.63;91.40;101351.09;106975;1251;60492;-86
2023/09/11 06:43:42;;;;;;;9.40;3.90;;;;;;;18.78;89.24;101363.38;107274;1248;60603;-83
2023/09/11 06:46:11;;;;;;;13.60;4.50;;;;;;;18.92;88.62;101359.42;107210;1249;64362;-84
2023/09/11 06:48:40;;;;;;;13.40;3.70;;;;;;;18.98;85.16;101360.69;107002;1251;72360;-84
2023/09/11 06:51:10;;;;;;;9.00;4.10;;;;;;;18.94;85.19;101361.47;106843;1261;60848;-85
2023/09/11 06:53:39;;;;;;;17.30;5.90;;;;;;;18.91;86.52;101360.09;106870;1253;63279;-84
2023/09/11 06:56:08;;;;;;;17.50;5.10;;;;;;;19.05;86.17;101354.96;106875;1250;60536;-85
2023/09/11 06:58:38;;;;;;;13.40;4.20;;;;;;;19.22;84.68;101356.03;106849;1261;60215;-85
2023/09/11 07:01:08;;;;;;;9.60;5.00;;;;;;;19.29;83.81;101355.52;106870;1261;74204;-83
2023/09/11 07:03:37;;;;;;;9.50;4.10;;;;;;;19.47;83.72;101355.84;106819;1251;61912;-83
2023/09/11 07:06:06;;;;;;;8.30;4.10;;;;;;;19.53;82.71;101354.41;106865;1250;60235;-83
2023/09/11 07:08:35;;;;;;;11.40;4.80;;;;;;;19.59;81.86;101352.38;108945;1249;63009;-82
2023/09/11 07:11:04;;;;;;;9.00;4.60;;;;;;;19.64;81.31;101353.73;109005;1249;59014;-82
2023/09/11 07:13:33;;;;;;;10.10;4.40;;;;;;;19.77;80.80;101352.38;108920;1248;61261;-78
2023/09/11 07:16:02;;;;;;;10.40;4.70;;;;;;;19.84;80.05;101353.28;108777;1248;73882;-85
2023/09/11 07:18:31;;;;;;;12.00;4.90;;;;;;;19.87;79.79;101350.61;109001;1248;72234;-84
2023/09/11 07:21:00;;;;;;;12.00;4.50;;;;;;;20.10;80.54;101352.52;108932;1248;69483;-83
2023/09/11 07:23:29;;;;;;;7.60;4.10;;;;;;;20.24;77.53;101354.94;108899;1248;74239;-84
2023/09/11 07:25:58;;;;;;;10.60;4.80;;;;;;;20.34;77.96;101354.84;108856;1249;59288;-84
2023/09/11 07:28:27;;;;;;;13.00;4.10;;;;;;;20.36;77.37;101352.17;108909;1248;57864;-83
2023/09/11 07:30:56;;;;;;;8.80;4.50;;;;;;;20.48;77.92;101349.99;108770;1248;70941;-82
2023/09/11 07:33:25;;;;;;;10.20;5.20;;;;;;;20.79;76.14;101349.10;108871;1248;72227;-78
2023/09/11 07:35:54;;;;;;;12.70;4.70;;;;;;;21.04;74.48;101348.69;108843;1249;60276;-72
2023/09/11 07:38:23;;;;;;;10.90;4.60;;;;;;;21.17;72.53;101348.17;108980;1248;73771;-81
2023/09/11 07:40:51;;;;;;;12.00;4.40;;;;;;;21.35;71.65;101347.88;108827;1248;61697;-72
2023/09/11 07:43:20;;;;;;;7.10;4.10;;;;;;;21.51;69.48;101346.02;108813;1249;57222;-79
2023/09/11 07:45:49;;;;;;;11.30;4.10;;;;;;;21.74;70.29;101343.98;108819;1248;72763;-71
2023/09/11 07:48:18;;;;;;;9.20;3.80;;;;;;;21.86;68.99;101341.19;108804;1248;73109;-76
2023/09/11 07:50:46;;;;;;;8.40;3.70;;;;;;;21.97;67.66;101341.04;108858;1248;70841;-66
2023/09/11 07:53:15;;;;;;;9.60;4.20;;;;;;;22.15;68.66;101338.52;109003;1248;63563;-65
2023/09/11 07:55:44;;;;;;;7.10;4.40;;;;;;;22.35;67.20;101332.44;108945;1248;58039;-69
2023/09/11 07:58:13;;;;;;;8.20;4.10;;;;;;;22.17;64.71;101327.80;108930;1248;61088;-67
2023/09/11 08:00:41;;;;;;;11.60;4.80;;;;;;;22.05;64.83;101331.54;108939;1248;74070;-70
2023/09/11 08:03:10;;;;;;;8.00;4.20;;;;;;;21.90;66.41;101328.02;108894;1248;62091;-70
2023/09/11 08:05:40;;;;;;;11.50;3.90;;;;;;;21.87;67.53;101327.42;108815;1248;70340;-70
2023/09/11 08:08:08;;;;;;;7.10;3.70;;;;;;;21.74;65.89;101323.60;108804;1248;74671;-70
2023/09/11 08:10:38;;;;;;;8.30;4.20;;;;;;;21.71;65.96;101323.70;108870;1248;60507;-70
2023/09/11 08:13:07;;;;;;;9.70;3.60;;;;;;;21.74;65.42;101325.48;108830;1250;57471;-71
2023/09/11 08:15:36;;;;;;;9.20;4.10;;;;;;;21.76;64.38;101330.11;108791;1248;62120;-71
2023/09/11 08:18:05;;;;;;;13.20;4.20;;;;;;;22.08;65.17;101325.65;108849;1248;72274;-70
2023/09/11 08:20:33;;;;;;;10.30;3.90;;;;;;;22.46;65.67;101322.02;108850;1248;70217;-71
2023/09/11 08:23:02;;;;;;;6.40;3.80;;;;;;;22.75;63.78;101320.64;108787;1248;74435;-71
2023/09/11 08:25:31;;;;;;;11.30;4.00;;;;;;;22.69;61.78;101318.39;108757;1250;57785;-71
2023/09/11 08:28:00;;;;;;;7.30;3.70;;;;;;;22.54;61.08;101314.55;108826;1248;57198;-72
2023/09/11 08:30:29;;;;;;;6.70;3.30;;;;;;;22.61;62.51;101312.90;108830;1248;72890;-70
2023/09/11 08:32:58;;;;;;;11.40;4.60;;;;;;;22.57;60.53;101311.16;108840;1248;71811;-69
2023/09/11 08:35:27;;;;;;;8.30;3.80;;;;;;;22.83;59.60;101308.36;108786;1250;59998;-70
2023/09/11 08:37:57;;;;;;;13.50;4.30;;;;;;;23.03;55.93;101306.23;108725;1248;73754;-71
2023/09/11 08:40:33;;;;;;;7.80;2.40;;;;;;;23.24;52.72;101300.78;108733;1250;60711;-70
2023/09/11 08:43:05;;;;;;;8.90;2.70;;;;;;;23.24;49.55;101300.85;108839;1248;57515;-70
2023/09/11 08:45:34;;;;;;;9.70;2.70;;;;;;;23.16;48.39;101304.67;109059;1247;74150;-70
2023/09/11 08:48:11;;;;;;;9.80;2.70;;;;;;;23.30;47.86;101298.26;108812;1250;62129;-70
2023/09/11 08:50:48;;;;;;;5.90;2.50;;;;;;;23.32;47.60;101299.21;108814;1250;59190;-70
2023/09/11 08:53:18;;;;;;;9.20;2.30;;;;;;;23.55;47.36;101292.83;108832;1251;62312;-71
2023/09/11 08:55:49;;;;;;;4.30;1.90;;;;;;;23.73;47.36;101291.58;108726;1252;57645;-71
2023/09/11 08:58:21;;;;;;;3.80;1.90;;;;;;;23.83;46.63;101289.30;108703;1248;60362;-70
2023/09/11 09:00:50;;;;;;;4.00;2.20;;;;;;;23.58;46.81;101286.66;108799;1251;62581;-70
2023/09/11 09:03:20;;;;;;;8.50;2.50;;;;;;;23.78;47.21;101290.79;108780;1249;60719;-70
2023/09/11 09:05:49;;;;;;;5.30;1.70;;;;;;;23.82;47.08;101289.61;108859;1250;59743;-71
2023/09/11 09:08:19;;;;;;;3.90;2.00;;;;;;;23.90;47.04;101283.45;108966;1252;62544;-70
2023/09/11 09:10:48;;;;;;;7.30;2.40;;;;;;;24.08;47.76;101281.27;108957;1250;57812;-71
2023/09/11 09:13:17;;;;;;;5.20;2.10;;;;;;;24.22;47.27;101282.70;109052;1250;57402;-70
2023/09/11 09:15:46;;;;;;;5.20;2.10;;;;;;;24.25;46.02;101276.23;109434;1244;62065;-69
2023/09/11 09:18:15;;;;;;;4.60;2.00;;;;;;;24.22;45.56;101276.93;109426;1244;72137;-69
2023/09/11 09:20:46;;;;;;;4.50;2.10;;;;;;;24.36;46.30;101275.11;109428;1244;70273;-69
2023/09/11 09:23:16;;;;;;;4.00;2.30;;;;;;;24.29;45.59;101268.93;109456;1244;73667;-69
2023/09/11 09:25:45;;;;;;;5.10;2.10;;;;;;;24.23;45.87;101271.61;109366;1247;60735;-69
2023/09/11 09:28:29;;;;;;;3.70;2.20;;;;;;;24.37;46.55;101265.73;109419;1247;62340;-69
2023/09/11 09:31:05;;;;;;;7.20;2.20;;;;;;;24.64;46.53;101264.45;109337;1244;73469;-69
2023/09/11 09:33:35;;;;;;;6.80;2.60;;;;;;;24.69;45.78;101262.94;109359;1246;62589;-69
2023/09/11 09:36:07;;;;;;;4.20;2.30;;;;;;;24.70;45.05;101266.08;109382;1244;61130;-69
2023/09/11 09:38:36;;;;;;;5.50;2.20;;;;;;;24.51;45.34;101255.31;109379;1247;72619;-69
2023/09/11 09:41:12;;;;;;;6.00;2.20;;;;;;;24.68;45.08;101258.45;109350;1244;61177;-69
2023/09/11 09:43:51;;;;;;;7.80;2.40;;;;;;;24.46;45.51;101253.14;109310;1244;60979;-69
2023/09/11 09:46:21;;;;;;;7.30;2.70;;;;;;;24.60;45.20;101250.90;109307;1244;73428;-70
2023/09/11 09:48:51;;;;;;;4.50;1.70;;;;;;;24.83;45.76;101254.24;109444;1245;72941;-69
2023/09/11 09:51:21;;;;;;;5.60;2.10;;;;;;;25.03;44.22;101249.60;109319;1245;71062;-70
2023/09/11 09:53:54;;;;;;;3.40;2.60;;;;;;;24.85;43.58;101253.19;109317;1244;74435;-70
2023/09/11 09:56:23;;;;;;;7.20;2.40;;;;;;;24.60;44.83;101246.45;109197;1248;61702;-70
2023/09/11 09:58:52;;;;;;;7.80;2.20;;;;;;;24.63;44.93;101246.60;109263;1247;61516;-69
2023/09/11 10:01:24;;;;;;;5.10;2.00;;;;;;;24.81;43.84;101249.77;109230;1247;74139;-70
2023/09/11 10:03:53;;;;;;;6.50;2.50;;;;;;;24.62;43.69;101240.59;109246;1248;72417;-70
2023/09/11 10:06:27;;;;;;;5.50;1.80;;;;;;;24.66;43.98;101240.02;109111;1245;71054;-70
2023/09/11 10:09:13;;;;;;;5.30;2.10;;;;;;;24.83;43.64;101243.10;109173;1245;74257;-70
2023/09/11 10:11:44;;;;;;;6.30;1.90;;;;;;;24.95;43.56;101237.67;109060;1247;60992;-71
2023/09/11 10:14:13;;;;;;;7.50;1.70;;;;;;;25.10;42.32;101234.90;109083;1247;57291;-70
2023/09/11 10:16:42;;;;;;;7.10;2.00;;;;;;;25.14;41.85;101232.41;109099;1245;74004;-70
2023/09/11 10:19:12;;;;;;;10.10;2.60;;;;;;;25.43;41.77;101228.92;109064;1245;62921;-71
2023/09/11 10:21:40;;;;;;;7.10;1.60;;;;;;;25.61;40.31;101229.13;108986;1247;60965;-71
2023/09/11 10:24:11;;;;;;;3.10;1.90;;;;;;;25.72;39.76;101222.65;108959;1248;63435;-70
2023/09/11 10:26:50;;;;;;;9.30;2.20;;;;;;;25.83;39.99;101215.77;109070;1245;61418;-70
2023/09/11 10:29:53;;;;;;;8.10;1.80;;;;;;;25.76;40.69;101222.02;109087;1247;61315;-70
2023/09/11 10:32:32;;;;;;;7.40;2.00;;;;;;;26.07;39.45;101217.80;109119;1245;63773;-70
2023/09/11 10:35:05;;;;;;;5.50;1.90;;;;;;;26.91;38.46;101210.61;109088;1247;72938;-70
2023/09/11 10:37:38;;;;;;;5.40;1.90;;;;;;;27.03;37.51;101205.41;109246;1245;62151;-71
2023/09/11 10:40:11;;;;;;;4.00;1.80;;;;;;;26.71;38.14;101204.33;109069;1247;63696;-70
2023/09/11 10:42:41;;;;;;;3.80;1.80;;;;;;;26.91;37.37;101201.07;109119;1245;57825;-71
2023/09/11 10:45:32;;;;;;;9.00;2.40;;;;;;;27.27;36.97;101192.73;109141;1248;61135;-70
2023/09/11 10:48:01;;;;;;;4.00;1.80;;;;;;;27.22;36.60;101192.34;109095;1245;62484;-69
2023/09/11 10:50:35;;;;;;;26.00;3.70;;;;;;;27.74;36.27;101188.69;109068;1245;61684;-69
2023/09/11 10:53:09;;;;;;;8.30;2.30;;;;;;;27.74;35.62;101194.75;109083;1247;59146;-69
2023/09/11 10:55:38;;;;;;;8.50;1.90;;;;;;;27.46;34.82;101183.78;109071;1247;73747;-69
2023/09/11 10:58:07;;;;;;;3.90;1.70;;;;;;;28.46;34.46;101185.00;109205;1247;61036;-69
2023/09/11 11:00:37;;;;;;;12.60;3.20;;;;;;;28.38;34.67;101179.09;108995;1245;59493;-68
2023/09/11 11:03:06;;;;;;;17.60;2.90;;;;;;;28.01;34.48;101177.85;109200;1247;63484;-73
2023/09/11 11:05:37;;;;;;;4.30;1.90;;;;;;;27.94;33.79;101180.40;109198;1244;72810;-69
2023/09/11 11:08:08;;;;;;;4.70;2.00;;;;;;;28.76;32.55;101173.52;109257;1246;70845;-69
2023/09/11 11:10:41;;;;;;;4.10;2.00;;;;;;;29.04;32.33;101172.67;109170;1247;73696;-69
2023/09/11 11:13:11;;;;;;;5.20;1.80;;;;;;;28.76;33.13;101171.84;109185;1246;61220;-69
2023/09/11 11:15:40;;;;;;;8.00;2.20;;;;;;;28.85;33.33;101168.67;109237;1245;60924;-69
2023/09/11 11:18:25;;;;;;;7.90;2.40;;;;;;;28.27;33.88;101160.41;109144;1247;74022;-69
2023/09/11 11:20:59;;;;;;;3.20;1.90;;;;;;;28.70;33.67;101157.59;109098;1245;72818;-70
2023/09/11 11:23:53;;;;;;;3.90;1.80;;;;;;;28.75;33.26;101152.25;109030;1245;60256;-69
2023/09/11 11:26:25;;;;;;;5.80;2.10;;;;;;;28.87;33.12;101151.48;109016;1247;64088;-69
2023/09/11 11:28:56;;;;;;;5.70;2.20;;;;;;;29.50;32.99;101151.52;109020;1245;57775;-69
2023/09/11 11:31:28;;;;;;;6.60;2.00;;;;;;;29.13;32.68;101146.61;109060;1245;57248;-68
2023/09/11 11:33:59;;;;;;;3.90;1.90;;;;;;;29.25;32.54;101145.03;109088;1244;72664;-70
2023/09/11 11:36:29;;;;;;;4.90;2.10;;;;;;;28.76;32.61;101144.39;109007;1245;61993;-70
2023/09/11 11:38:59;;;;;;;4.10;2.10;;;;;;;27.97;33.62;101144.88;109064;1245;61213;-69
2023/09/11 11:41:30;;;;;;;4.30;2.20;;;;;;;28.56;33.20;101140.30;108990;1245;73333;-71